createdAt,value
2023-03-27T00:00:25.893Z,102.37
2023-03-27T00:04:26.074Z,83.87
2023-03-27T00:08:26.272Z,60.81
2023-03-27T00:12:26.501Z,112.97
2023-03-27T00:16:26.957Z,95.90
2023-03-27T00:20:26.887Z,67.00
2023-03-27T00:24:27.088Z,88.64
2023-03-27T00:28:27.338Z,71.61
2023-03-27T00:32:27.668Z,72.18
2023-03-27T00:36:27.739Z,61.41
2023-03-27T00:40:27.949Z,102.67
2023-03-27T00:44:28.145Z,86.30
2023-03-27T00:48:28.355Z,82.85
2023-03-27T00:52:28.331Z,98.58
2023-03-27T00:56:28.282Z,90.53
2023-03-27T01:00:28.265Z,67.35
2023-03-27T01:04:28.213Z,88.28
2023-03-27T01:08:28.192Z,95.13
2023-03-27T01:12:28.139Z,60.77
2023-03-27T01:16:28.087Z,76.22
2023-03-27T01:20:28.050Z,78.13
2023-03-27T01:24:28.023Z,90.32
2023-03-27T01:28:28.013Z,92.37
2023-03-27T01:32:28.079Z,68.61
2023-03-27T01:36:28.292Z,52.90
2023-03-27T01:40:28.281Z,69.14
2023-03-27T01:44:43.057Z,52.10
2023-03-27T01:48:29.204Z,50.69
2023-03-27T01:52:28.134Z,37.77
2023-03-27T01:56:28.329Z,39.32
2023-03-27T02:00:51.914Z,57.93
2023-03-27T02:04:29.549Z,56.43
2023-03-27T02:08:28.515Z,64.48
2023-03-27T02:12:28.716Z,42.72
2023-03-27T02:16:28.809Z,40.59
2023-03-27T02:20:28.660Z,74.68
2023-03-27T02:24:28.619Z,78.47
2023-03-27T02:28:28.577Z,46.57
2023-03-27T02:32:28.657Z,52.17
2023-03-27T02:36:28.500Z,64.34
2023-03-27T02:40:28.469Z,40.40
2023-03-27T02:44:28.447Z,61.86
2023-03-27T02:48:28.409Z,33.83
2023-03-27T02:52:28.512Z,39.91
2023-03-27T02:56:28.473Z,47.68
2023-03-27T03:00:28.501Z,50.61
2023-03-27T03:04:28.478Z,54.40
2023-03-27T03:08:28.375Z,73.52
2023-03-27T03:12:28.330Z,59.36
2023-03-27T03:16:28.349Z,57.41
2023-03-27T03:20:28.254Z,57.72
2023-03-27T03:24:28.210Z,62.58
2023-03-27T03:28:28.276Z,53.83
2023-03-27T03:32:28.285Z,41.13
2023-03-27T03:36:28.244Z,38.91
2023-03-27T03:40:28.188Z,26.54
2023-03-27T03:44:28.153Z,32.83
2023-03-27T03:48:28.117Z,28.31
2023-03-27T03:52:28.090Z,39.61
2023-03-27T03:56:28.044Z,58.62
2023-03-27T04:00:28.031Z,51.59
2023-03-27T04:04:27.959Z,56.16
2023-03-27T04:08:27.930Z,54.15
2023-03-27T04:12:28.073Z,53.95
2023-03-27T04:16:28.064Z,41.79
2023-03-27T04:20:27.994Z,77.33
2023-03-27T04:24:27.943Z,56.03
2023-03-27T04:28:27.919Z,75.58
2023-03-27T04:32:27.910Z,53.92
2023-03-27T04:36:29.480Z,52.06
2023-03-27T04:40:27.819Z,51.95
2023-03-27T04:44:27.766Z,57.57
2023-03-27T04:48:27.739Z,76.62
2023-03-27T04:52:27.700Z,67.85
2023-03-27T04:56:27.772Z,73.74
2023-03-27T05:00:27.628Z,74.05
2023-03-27T05:04:27.596Z,89.49
2023-03-27T05:08:27.537Z,85.67
2023-03-27T05:12:27.511Z,117.30
2023-03-27T05:16:27.624Z,113.43
2023-03-27T05:20:27.546Z,102.78
2023-03-27T05:24:27.531Z,126.53
2023-03-27T05:28:27.545Z,136.83
2023-03-27T05:32:27.467Z,234.29
2023-03-27T05:36:27.402Z,210.06
2023-03-27T05:40:27.385Z,221.95
2023-03-27T05:44:27.322Z,101.27
2023-03-27T05:48:27.318Z,0.00
2023-03-27T05:52:28.587Z,71.96
2023-03-27T05:56:27.287Z,98.14
2023-03-27T06:00:27.169Z,137.47
2023-03-27T06:04:27.301Z,189.99
2023-03-27T06:08:27.310Z,147.47
2023-03-27T06:12:27.283Z,195.69
2023-03-27T06:16:27.425Z,224.97
2023-03-27T06:20:27.831Z,241.65
2023-03-27T06:24:27.469Z,247.16
2023-03-27T06:28:27.826Z,247.78
2023-03-27T06:32:27.878Z,250.72
2023-03-27T06:36:27.970Z,241.14
2023-03-27T06:40:27.500Z,248.38
2023-03-27T06:44:27.459Z,249.93
2023-03-27T06:48:27.445Z,250.00
2023-03-27T06:52:27.388Z,249.71
2023-03-27T06:56:27.356Z,248.19
2023-03-27T07:00:27.343Z,249.26
2023-03-27T07:04:27.268Z,239.46
2023-03-27T07:08:27.385Z,250.00
2023-03-27T07:12:27.192Z,242.09
2023-03-27T07:16:27.315Z,249.37
2023-03-27T07:20:27.364Z,243.05
2023-03-27T07:24:27.873Z,235.78
2023-03-27T07:28:27.570Z,246.77
2023-03-27T09:27:18.667Z,25.00
2023-03-27T09:31:19.237Z,25.00
2023-03-27T09:35:19.050Z,0.00
2023-03-27T09:39:19.193Z,27.73
2023-03-27T09:43:19.194Z,40.09
2023-03-27T09:47:19.698Z,31.68
2023-03-27T09:51:19.425Z,38.88
2023-03-27T09:55:19.516Z,40.53
2023-03-27T09:59:19.557Z,42.71
2023-03-27T10:03:19.621Z,36.27
2023-03-27T10:07:19.523Z,40.11
2023-03-27T10:11:19.536Z,41.31
2023-03-27T10:15:19.631Z,37.43
2023-03-27T10:19:19.724Z,40.75
2023-03-27T10:23:20.249Z,31.09
2023-03-27T10:27:20.092Z,0.00
2023-03-27T10:31:28.372Z,0.00
2023-03-27T10:35:20.204Z,0.00
2023-03-27T10:39:20.198Z,0.00
2023-03-27T10:43:20.276Z,0.00
2023-03-27T10:47:20.257Z,29.78
2023-03-27T10:51:20.213Z,25.82
2023-03-27T10:55:20.244Z,15.18
2023-03-27T10:59:30.959Z,170.83
2023-03-27T11:03:21.572Z,230.67
2023-03-27T11:07:20.527Z,252.66
2023-03-27T11:11:20.544Z,252.13
2023-03-27T11:15:20.595Z,243.09
2023-03-27T11:19:20.816Z,190.56
2023-03-27T11:23:21.368Z,186.61
2023-03-27T11:27:20.953Z,187.98
2023-03-27T11:31:21.082Z,179.81
2023-03-27T11:35:21.120Z,161.29
2023-03-27T11:39:21.592Z,170.92
2023-03-27T11:43:22.470Z,192.21
2023-03-27T11:47:21.537Z,203.17
2023-03-27T11:51:21.899Z,171.62
2023-03-27T11:55:21.891Z,183.67
2023-03-27T11:59:21.849Z,184.19
2023-03-27T12:03:22.112Z,176.27
2023-03-27T12:07:33.825Z,180.55
2023-03-27T12:11:23.391Z,178.80
2023-03-27T12:15:21.862Z,153.58
2023-03-27T12:23:22.821Z,163.91
2023-03-27T12:27:21.788Z,170.25
2023-03-27T12:31:21.762Z,151.56
2023-03-27T12:35:22.405Z,173.04
2023-03-27T12:39:21.582Z,160.66
2023-03-27T12:43:21.607Z,184.59
2023-03-27T12:47:21.545Z,193.21
2023-03-27T12:51:21.500Z,180.41
2023-03-27T12:55:21.534Z,155.74
2023-03-27T12:59:21.550Z,187.17
2023-03-27T13:03:21.522Z,165.20
2023-03-27T13:07:21.851Z,167.97
2023-03-27T13:11:21.995Z,186.86
2023-03-27T13:15:21.588Z,163.56
2023-03-27T13:19:21.711Z,170.97
2023-03-27T13:23:21.594Z,170.79
2023-03-27T13:27:21.560Z,167.32
2023-03-27T13:31:21.744Z,163.32
2023-03-27T13:35:21.631Z,164.14
2023-03-27T13:39:21.631Z,171.43
2023-03-27T13:43:21.731Z,218.59
2023-03-27T13:47:21.714Z,222.66
2023-03-27T13:51:21.756Z,195.38
2023-03-27T13:55:21.779Z,167.26
2023-03-27T13:59:21.950Z,125.40
2023-03-27T14:03:21.974Z,191.81
2023-03-27T14:07:21.923Z,154.30
2023-03-27T14:11:21.994Z,179.04
2023-03-27T14:15:22.025Z,164.23
2023-03-27T14:19:22.091Z,178.71
2023-03-27T14:23:23.485Z,152.49
2023-03-27T14:27:22.059Z,175.81
2023-03-27T14:31:22.128Z,151.39
2023-03-27T14:35:22.040Z,139.00
2023-03-27T14:39:21.999Z,113.42
2023-03-27T14:43:21.944Z,117.68
2023-03-27T14:47:21.959Z,117.07
2023-03-27T14:51:21.884Z,74.72
2023-03-27T14:55:21.818Z,79.72
2023-03-27T14:59:21.817Z,99.87
2023-03-27T15:03:21.867Z,61.07
2023-03-27T15:07:21.775Z,61.48
2023-03-27T15:11:21.695Z,71.93
2023-03-27T15:15:21.643Z,49.69
2023-03-27T15:19:21.677Z,78.58
2023-03-27T15:23:21.598Z,78.49
2023-03-27T15:27:21.613Z,61.20
2023-03-27T15:31:21.584Z,60.91
2023-03-27T15:35:21.461Z,54.13
2023-03-27T15:39:21.414Z,34.97
2023-03-27T15:42:47.364Z,25.00
2023-03-27T15:43:47.362Z,25.00
2023-03-27T15:44:47.318Z,25.00
2023-03-27T15:45:47.292Z,25.00
2023-03-27T15:46:47.338Z,25.00
2023-03-27T15:47:47.314Z,12.72
2023-03-27T15:48:47.273Z,26.40
2023-03-27T15:49:47.283Z,45.31
2023-03-27T15:50:47.280Z,80.58
2023-03-27T15:51:47.258Z,43.87
2023-03-27T15:52:47.247Z,25.00
2023-03-27T15:53:47.257Z,68.76
2023-03-27T15:54:47.253Z,63.66
2023-03-27T15:55:47.236Z,75.04
2023-03-27T15:56:47.284Z,77.03
2023-03-27T15:57:47.215Z,83.46
2023-03-27T15:58:47.275Z,63.61
2023-03-27T15:59:52.066Z,64.31
2023-03-27T16:00:48.204Z,65.22
2023-03-27T16:01:47.247Z,67.25
2023-03-27T16:02:47.242Z,69.86
2023-03-27T16:03:47.331Z,100.96
2023-03-27T16:04:47.164Z,79.14
2023-03-27T16:05:47.160Z,96.95
2023-03-27T16:06:47.186Z,76.08
2023-03-27T16:07:47.240Z,83.89
2023-03-27T16:08:47.294Z,70.49
2023-03-27T16:09:47.362Z,63.86
2023-03-27T16:10:47.417Z,67.17
2023-03-27T16:11:47.455Z,80.68
2023-03-27T16:12:47.530Z,63.44
2023-03-27T16:13:47.558Z,69.55
2023-03-27T16:14:47.611Z,59.02
2023-03-27T16:15:47.689Z,53.35
2023-03-27T16:16:47.714Z,27.46
2023-03-27T16:17:47.771Z,54.82
2023-03-27T16:18:47.786Z,40.03
2023-03-27T16:19:47.784Z,42.22
2023-03-27T16:20:47.838Z,40.54
2023-03-27T16:21:47.969Z,29.80
2023-03-27T16:22:47.913Z,35.79
2023-03-27T16:23:47.928Z,30.52
2023-03-27T16:24:47.945Z,63.03
2023-03-27T16:25:47.959Z,44.20
2023-03-27T16:26:47.967Z,37.83
2023-03-27T16:27:47.981Z,43.16
2023-03-27T16:28:47.997Z,51.48
2023-03-27T16:29:47.992Z,69.94
2023-03-27T16:30:47.997Z,49.63
2023-03-27T16:31:48.108Z,44.64
2023-03-27T16:32:48.123Z,39.07
2023-03-27T16:33:48.059Z,25.00
2023-03-27T16:34:48.090Z,30.14
2023-03-27T16:35:48.141Z,39.63
2023-03-27T16:36:48.069Z,41.56
2023-03-27T16:37:48.088Z,37.52
2023-03-27T16:38:48.087Z,65.69
2023-03-27T16:39:48.071Z,57.68
2023-03-27T16:40:48.075Z,81.81
2023-03-27T16:41:48.078Z,87.63
2023-03-27T16:42:48.073Z,70.37
2023-03-27T16:43:48.146Z,77.06
2023-03-27T16:44:48.040Z,72.72
2023-03-27T16:45:48.099Z,70.22
2023-03-27T16:46:48.050Z,74.83
2023-03-27T16:47:49.086Z,72.97
2023-03-27T16:48:48.045Z,83.52
2023-03-27T16:50:48.002Z,66.21
2023-03-27T16:51:48.009Z,59.75
2023-03-27T16:52:48.018Z,61.49
2023-03-27T16:53:47.993Z,47.96
2023-03-27T16:54:47.986Z,61.67
2023-03-27T16:55:47.965Z,67.18
2023-03-27T16:56:47.996Z,62.81
2023-03-27T16:57:47.976Z,66.42
2023-03-27T16:58:47.969Z,71.77
2023-03-27T16:59:47.939Z,83.82
2023-03-27T17:00:47.979Z,95.40
2023-03-27T17:01:47.944Z,77.03
2023-03-27T17:02:48.052Z,58.12
2023-03-27T17:03:47.928Z,73.59
2023-03-27T17:04:47.941Z,50.73
2023-03-27T17:05:47.915Z,69.37
2023-03-27T17:06:47.993Z,55.40
2023-03-27T17:07:47.900Z,56.57
2023-03-27T17:08:47.898Z,61.85
2023-03-27T17:09:47.893Z,55.94
2023-03-27T17:10:47.881Z,56.24
2023-03-27T17:11:47.862Z,41.38
2023-03-27T17:12:47.880Z,55.22
2023-03-27T17:13:47.880Z,57.11
2023-03-27T17:14:47.855Z,50.14
2023-03-27T17:15:47.853Z,43.60
2023-03-27T17:16:47.921Z,41.10
2023-03-27T17:17:47.865Z,61.26
2023-03-27T17:18:47.826Z,54.95
2023-03-27T17:19:47.813Z,51.81
2023-03-27T17:20:47.821Z,59.32
2023-03-27T17:21:47.847Z,49.58
2023-03-27T17:22:47.808Z,39.19
2023-03-27T17:23:47.785Z,32.07
2023-03-27T17:24:56.262Z,36.51
2023-03-27T17:25:48.773Z,36.58
2023-03-27T17:26:47.761Z,37.62
2023-03-27T17:27:47.756Z,42.93
2023-03-27T17:28:47.860Z,42.71
2023-03-27T17:29:47.752Z,45.31
2023-03-27T17:31:01.098Z,56.72
2023-03-27T17:31:48.758Z,57.12
2023-03-27T17:32:47.765Z,55.04
2023-03-27T17:33:47.748Z,53.50
2023-03-27T17:34:47.705Z,59.90
2023-03-27T17:35:47.773Z,56.12
2023-03-27T17:36:54.178Z,61.94
2023-03-27T17:37:48.687Z,56.87
2023-03-27T17:38:47.694Z,62.09
2023-03-27T17:39:47.694Z,63.79
2023-03-27T17:40:47.679Z,62.17
2023-03-27T17:41:47.654Z,54.32
2023-03-27T17:42:47.668Z,77.81
2023-03-27T17:43:47.650Z,124.27
2023-03-27T17:44:47.651Z,108.15
2023-03-27T17:45:47.649Z,100.46
2023-03-27T17:46:47.672Z,84.93
2023-03-27T17:47:47.694Z,73.03
2023-03-27T17:48:47.626Z,83.62
2023-03-27T17:49:47.706Z,76.40
2023-03-27T17:50:51.880Z,73.88
2023-03-27T17:51:48.593Z,74.50
2023-03-27T17:52:47.607Z,79.01
2023-03-27T17:53:47.585Z,81.10
2023-03-27T17:54:47.566Z,82.22
2023-03-27T17:55:47.590Z,95.07
2023-03-27T17:56:47.595Z,102.32
2023-03-27T17:57:55.713Z,89.84
2023-03-27T17:58:48.567Z,75.26
2023-03-27T17:59:47.542Z,73.84
2023-03-27T18:00:47.571Z,80.95
2023-03-27T18:01:47.547Z,82.10
2023-03-27T18:02:47.657Z,92.36
2023-03-27T18:03:47.608Z,92.11
2023-03-27T18:04:47.517Z,93.07
2023-03-27T18:05:47.506Z,80.29
2023-03-27T18:06:47.505Z,86.23
2023-03-27T18:07:47.498Z,83.10
2023-03-27T18:08:47.490Z,87.63
2023-03-27T18:09:47.492Z,90.01
2023-03-27T18:10:47.535Z,95.03
2023-03-27T18:11:47.484Z,94.71
2023-03-27T18:12:47.551Z,97.59
2023-03-27T18:13:47.444Z,86.58
2023-03-27T18:14:47.440Z,78.52
2023-03-27T18:15:47.453Z,85.33
2023-03-27T18:16:47.477Z,96.83
2023-03-27T18:17:47.484Z,115.34
2023-03-27T18:18:47.441Z,151.42
2023-03-27T18:19:47.427Z,155.31
2023-03-27T18:20:47.394Z,116.81
2023-03-27T18:21:47.426Z,101.86
2023-03-27T18:22:47.397Z,95.83
2023-03-27T18:23:47.374Z,85.03
2023-03-27T18:24:47.386Z,81.35
2023-03-27T18:25:47.414Z,72.69
2023-03-27T18:26:47.363Z,82.37
2023-03-27T18:27:47.377Z,97.21
2023-03-27T18:28:47.351Z,114.49
2023-03-27T18:29:47.345Z,111.57
2023-03-27T18:30:47.324Z,92.19
2023-03-27T18:31:47.340Z,75.02
2023-03-27T18:32:47.359Z,58.98
2023-03-27T18:33:47.305Z,63.42
2023-03-27T18:34:47.382Z,61.49
2023-03-27T18:35:47.331Z,66.86
2023-03-27T18:36:47.294Z,64.65
2023-03-27T18:37:47.323Z,64.71
2023-03-27T18:38:49.543Z,51.23
2023-03-27T18:39:47.380Z,38.16
2023-03-27T18:40:47.418Z,42.67
2023-03-27T18:41:47.433Z,45.04
2023-03-27T18:42:47.521Z,42.56
2023-03-27T18:43:47.467Z,49.57
2023-03-27T18:44:47.462Z,50.24
2023-03-27T18:45:47.515Z,41.47
2023-03-27T18:46:47.541Z,42.72
2023-03-27T18:47:47.608Z,42.91
2023-03-27T18:48:47.564Z,46.03
2023-03-27T18:49:47.612Z,38.75
2023-03-27T18:50:47.607Z,53.97
2023-03-27T18:51:47.650Z,66.33
2023-03-27T18:52:47.673Z,79.58
2023-03-27T18:53:47.684Z,68.55
2023-03-27T18:54:47.697Z,60.66
2023-03-27T18:55:47.721Z,51.88
2023-03-27T18:56:47.872Z,54.43
2023-03-27T18:57:47.787Z,56.23
2023-03-27T18:58:47.799Z,58.74
2023-03-27T18:59:47.824Z,60.09
2023-03-27T19:00:47.914Z,68.72
2023-03-27T19:01:47.891Z,80.94
2023-03-27T19:02:48.226Z,88.77
2023-03-27T19:03:48.787Z,102.84
2023-03-27T19:04:48.139Z,84.63
2023-03-27T19:05:48.159Z,69.09
2023-03-27T19:06:48.193Z,63.41
2023-03-27T19:07:48.227Z,57.31
2023-03-27T19:08:48.274Z,49.71
2023-03-27T19:09:48.269Z,48.43
2023-03-27T19:10:48.320Z,50.24
2023-03-27T19:11:48.337Z,45.46
2023-03-27T19:12:48.355Z,44.60
2023-03-27T19:13:48.399Z,54.53
2023-03-27T19:14:48.384Z,64.46
2023-03-27T19:15:48.432Z,58.76
2023-03-27T19:16:48.464Z,50.03
2023-03-27T19:17:48.514Z,53.70
2023-03-27T19:18:48.574Z,49.25
2023-03-27T19:19:48.529Z,60.03
2023-03-27T19:20:48.529Z,63.77
2023-03-27T19:21:48.565Z,54.65
2023-03-27T19:22:48.574Z,44.62
2023-03-27T19:23:48.607Z,39.17
2023-03-27T19:24:48.641Z,62.10
2023-03-27T19:25:48.659Z,51.99
2023-03-27T19:26:48.687Z,49.58
2023-03-27T19:27:48.730Z,50.58
2023-03-27T19:28:48.760Z,51.53
2023-03-27T19:29:48.792Z,46.19
2023-03-27T19:30:48.871Z,41.20
2023-03-27T19:31:48.828Z,49.75
2023-03-27T19:32:48.910Z,46.45
2023-03-27T19:33:48.907Z,48.27
2023-03-27T19:34:48.988Z,38.72
2023-03-27T19:35:48.957Z,55.09
2023-03-27T19:36:51.038Z,62.30
2023-03-27T19:37:48.971Z,54.48
2023-03-27T19:38:48.966Z,50.13
2023-03-27T19:39:48.978Z,38.12
2023-03-27T19:40:49.044Z,34.52
2023-03-27T19:41:48.946Z,44.73
2023-03-27T19:42:48.941Z,35.21
2023-03-27T19:43:48.927Z,35.77
2023-03-27T19:44:48.938Z,40.85
2023-03-27T19:45:48.965Z,40.04
2023-03-27T19:46:48.946Z,35.50
2023-03-27T19:47:48.918Z,38.11
2023-03-27T19:48:48.924Z,30.01
2023-03-27T19:49:48.895Z,28.93
2023-03-27T19:50:48.873Z,25.00
2023-03-27T19:51:48.892Z,26.52
2023-03-27T19:53:05.495Z,28.33
2023-03-27T19:53:49.889Z,23.42
2023-03-27T19:54:48.857Z,19.67
2023-03-27T19:55:48.859Z,27.86
2023-03-27T19:56:48.878Z,28.51
2023-03-27T19:57:48.849Z,14.63
2023-03-27T19:58:48.841Z,27.27
2023-03-27T19:59:48.818Z,29.19
2023-03-27T20:00:48.829Z,32.74
2023-03-27T20:01:48.866Z,28.46
2023-03-27T20:02:48.875Z,35.05
2023-03-27T20:03:48.998Z,34.01
2023-03-27T20:04:48.796Z,38.12
2023-03-27T20:05:48.771Z,34.09
2023-03-27T20:06:48.805Z,49.81
2023-03-27T20:07:48.818Z,73.97
2023-03-27T20:08:48.870Z,91.55
2023-03-27T20:09:48.899Z,80.92
2023-03-27T20:10:48.925Z,66.60
2023-03-27T20:11:48.953Z,70.67
2023-03-27T20:12:49.009Z,72.22
2023-03-27T20:13:56.181Z,69.75
2023-03-27T20:15:02.259Z,56.86
2023-03-27T20:15:50.034Z,50.57
2023-03-27T20:16:48.996Z,58.01
2023-03-27T20:17:49.003Z,68.01
2023-03-27T20:18:48.992Z,67.99
2023-03-27T20:19:48.971Z,63.41
2023-03-27T20:20:48.959Z,63.29
2023-03-27T20:21:48.982Z,95.81
2023-03-27T20:23:48.948Z,73.82
2023-03-27T20:24:48.955Z,63.90
2023-03-27T20:25:49.045Z,60.09
2023-03-27T20:26:48.916Z,55.24
2023-03-27T20:27:48.925Z,55.60
2023-03-27T20:28:48.917Z,69.98
2023-03-27T20:29:48.892Z,71.01
2023-03-27T20:30:48.910Z,93.98
2023-03-27T20:31:49.012Z,78.70
2023-03-27T20:32:48.914Z,56.37
2023-03-27T20:33:48.896Z,55.48
2023-03-27T20:34:48.874Z,52.08
2023-03-27T20:35:48.916Z,38.29
2023-03-27T20:36:48.865Z,45.47
2023-03-27T20:37:48.858Z,43.57
2023-03-27T20:38:48.849Z,50.27
2023-03-27T20:39:48.827Z,52.75
2023-03-27T20:41:48.831Z,46.75
2023-03-27T20:42:48.809Z,46.70
2023-03-27T20:43:48.841Z,46.09
2023-03-27T20:44:48.796Z,44.26
2023-03-27T20:45:48.785Z,34.19
2023-03-27T20:46:48.820Z,38.59
2023-03-27T20:47:48.937Z,50.34
2023-03-27T20:48:53.991Z,41.51
2023-03-27T20:49:49.767Z,38.02
2023-03-27T20:50:48.762Z,31.34
2023-03-27T20:51:48.751Z,28.27
2023-03-27T20:52:48.749Z,40.78
2023-03-27T20:53:48.743Z,31.88
2023-03-27T20:54:48.722Z,36.66
2023-03-27T20:56:03.047Z,28.31
2023-03-27T20:56:49.758Z,28.74
2023-03-27T20:57:48.713Z,29.52
2023-03-27T20:58:48.735Z,25.63
2023-03-27T20:59:48.711Z,33.89
2023-03-27T21:00:48.778Z,29.95
2023-03-27T21:01:48.704Z,40.78
2023-03-27T21:02:48.752Z,31.62
2023-03-27T21:03:48.660Z,37.80
2023-03-27T21:04:48.681Z,44.57
2023-03-27T21:05:48.660Z,45.38
2023-03-27T21:06:48.659Z,40.74
2023-03-27T21:07:48.681Z,39.00
2023-03-27T21:08:48.698Z,47.32
2023-03-27T21:09:48.849Z,41.71
2023-03-27T21:10:48.791Z,34.69
2023-03-27T21:11:48.811Z,45.42
2023-03-27T21:12:48.861Z,60.43
2023-03-27T21:13:48.894Z,41.22
2023-03-27T21:14:48.943Z,34.54
2023-03-27T21:15:48.975Z,30.90
2023-03-27T21:16:49.061Z,34.55
2023-03-27T21:17:49.094Z,30.47
2023-03-27T21:18:49.117Z,29.88
2023-03-27T21:19:49.144Z,28.04
2023-03-27T21:20:49.197Z,29.45
2023-03-27T21:21:49.232Z,30.04
2023-03-27T21:22:49.269Z,27.30
2023-03-27T21:23:49.324Z,28.51
2023-03-27T21:24:49.359Z,37.40
2023-03-27T21:25:49.400Z,43.47
2023-03-27T21:26:49.470Z,31.75
2023-03-27T21:27:49.485Z,38.27
2023-03-27T21:28:49.536Z,50.84
2023-03-27T21:29:49.560Z,44.22
2023-03-27T21:30:49.625Z,37.12
2023-03-27T21:31:49.690Z,30.01
2023-03-27T21:32:49.787Z,36.90
2023-03-27T21:33:49.762Z,35.49
2023-03-27T21:34:49.795Z,38.39
2023-03-27T21:35:49.873Z,43.76
2023-03-27T21:36:49.994Z,36.60
2023-03-27T21:37:49.943Z,43.98
2023-03-27T21:38:49.992Z,41.09
2023-03-27T21:39:50.058Z,41.63
2023-03-27T21:40:50.111Z,47.92
2023-03-27T21:41:50.159Z,41.39
2023-03-27T21:42:50.190Z,48.89
2023-03-27T21:43:50.229Z,64.41
2023-03-27T21:44:53.896Z,104.94
2023-03-27T21:45:51.324Z,101.29
2023-03-27T21:46:50.296Z,100.12
2023-03-27T21:47:50.263Z,78.54
2023-03-27T21:48:50.273Z,64.51
2023-03-27T21:49:50.252Z,62.93
2023-03-27T21:50:50.222Z,66.31
2023-03-27T21:51:50.237Z,65.43
2023-03-27T21:52:50.222Z,68.31
2023-03-27T21:53:50.203Z,59.20
2023-03-27T21:55:02.409Z,64.12
2023-03-27T21:55:51.184Z,64.24
2023-03-27T21:56:50.234Z,67.20
2023-03-27T21:57:50.185Z,72.22
2023-03-27T21:58:50.190Z,78.39
2023-03-27T21:59:50.208Z,95.32
2023-03-27T22:00:50.167Z,112.42
2023-03-27T22:01:50.215Z,115.62
2023-03-27T22:02:50.179Z,98.46
2023-03-27T22:03:50.192Z,83.30
2023-03-27T22:04:50.262Z,84.46
2023-03-27T22:06:01.006Z,86.10
2023-03-27T22:06:51.271Z,84.14
2023-03-27T22:07:50.253Z,83.63
2023-03-27T22:08:50.272Z,77.72
2023-03-27T22:09:50.250Z,73.79
2023-03-27T22:10:50.245Z,73.05
2023-03-27T22:11:50.243Z,83.90
2023-03-27T22:12:50.241Z,88.78
2023-03-27T22:13:50.221Z,81.01
2023-03-27T22:14:50.200Z,67.82
2023-03-27T22:15:50.296Z,70.56
2023-03-27T22:16:50.333Z,73.53
2023-03-27T22:17:50.303Z,67.31
2023-03-27T22:18:50.337Z,77.64
2023-03-27T22:19:50.384Z,75.83
2023-03-27T22:20:50.424Z,63.90
2023-03-27T22:21:50.472Z,67.62
2023-03-27T22:22:50.519Z,78.04
2023-03-27T22:23:50.579Z,69.03
2023-03-27T22:24:50.583Z,78.51
2023-03-27T22:25:50.634Z,67.41
2023-03-27T22:26:50.698Z,70.66
2023-03-27T22:27:50.739Z,68.97
2023-03-27T22:28:50.767Z,67.03
2023-03-27T22:29:50.812Z,60.49
2023-03-27T22:30:50.892Z,60.18
2023-03-27T22:31:50.922Z,81.16
2023-03-27T22:32:50.998Z,73.63
2023-03-27T22:33:51.016Z,62.17
2023-03-27T22:34:51.046Z,63.00
2023-03-27T22:35:51.130Z,76.77
2023-03-27T22:36:51.149Z,64.44
2023-03-27T22:37:51.183Z,60.00
2023-03-27T22:38:51.312Z,56.24
2023-03-27T22:39:51.269Z,61.84
2023-03-27T22:40:51.333Z,71.91
2023-03-27T22:41:51.380Z,62.97
2023-03-27T22:42:51.410Z,67.92
2023-03-27T22:43:51.469Z,62.90
2023-03-27T22:44:51.520Z,77.75
2023-03-27T22:45:51.598Z,67.64
2023-03-27T22:46:51.665Z,71.21
2023-03-27T22:47:51.740Z,77.70
2023-03-27T22:48:51.725Z,74.82
2023-03-27T22:49:51.804Z,81.05
2023-03-27T22:50:51.844Z,81.83
2023-03-27T22:51:51.909Z,76.95
2023-03-27T22:52:51.948Z,84.03
2023-03-27T22:53:52.013Z,87.27
2023-03-27T22:54:52.070Z,96.63
2023-03-27T22:55:52.140Z,74.77
2023-03-27T22:56:52.263Z,77.38
2023-03-27T22:57:52.226Z,69.97
2023-03-27T22:58:52.278Z,68.78
2023-03-27T22:59:52.320Z,80.61
2023-03-27T23:00:52.396Z,94.26
2023-03-27T23:01:52.609Z,106.67
2023-03-27T23:02:52.571Z,105.09
2023-03-27T23:03:52.675Z,83.17
2023-03-27T23:04:52.574Z,87.96
2023-03-27T23:05:52.635Z,89.37
2023-03-27T23:06:52.685Z,110.26
2023-03-27T23:07:52.750Z,147.20
2023-03-27T23:08:52.788Z,134.95
2023-03-27T23:09:52.827Z,134.06
2023-03-27T23:10:52.881Z,139.53
2023-03-27T23:11:52.940Z,103.00
2023-03-27T23:12:52.986Z,91.78
2023-03-27T23:13:53.039Z,86.33
2023-03-27T23:14:53.083Z,86.23
2023-03-27T23:15:53.155Z,95.61
2023-03-27T23:16:53.231Z,144.27
2023-03-27T23:17:53.271Z,196.99
2023-03-27T23:18:53.312Z,192.77
2023-03-27T23:19:53.335Z,166.82
2023-03-27T23:20:53.407Z,131.20
2023-03-27T23:21:53.468Z,105.05
2023-03-27T23:22:53.500Z,97.34
2023-03-27T23:23:53.636Z,97.93
2023-03-27T23:24:53.619Z,125.31
2023-03-27T23:25:53.666Z,147.20
2023-03-27T23:26:53.695Z,155.26
2023-03-27T23:27:53.766Z,162.61
2023-03-27T23:28:53.810Z,152.66
2023-03-27T23:29:53.860Z,161.41
2023-03-27T23:30:53.927Z,158.06
2023-03-27T23:31:54.006Z,117.02
2023-03-27T23:32:54.071Z,104.57
2023-03-27T23:33:54.076Z,145.09
2023-03-27T23:34:54.131Z,173.51
2023-03-27T23:35:54.254Z,168.32
2023-03-27T23:36:54.250Z,147.20
2023-03-27T23:37:54.302Z,120.69
2023-03-27T23:38:54.353Z,106.70
2023-03-27T23:39:54.394Z,126.36
2023-03-27T23:40:54.469Z,134.50
2023-03-27T23:41:54.520Z,140.89
2023-03-27T23:42:54.565Z,157.55
2023-03-27T23:43:54.615Z,147.44
2023-03-27T23:44:54.652Z,144.20
2023-03-27T23:45:54.857Z,117.83
2023-03-27T23:46:54.786Z,111.26
2023-03-27T23:47:54.849Z,118.16
2023-03-27T23:48:54.892Z,98.64
2023-03-27T23:49:54.948Z,109.07
2023-03-27T23:50:54.995Z,104.93
2023-03-27T23:51:55.040Z,123.19
2023-03-27T23:52:55.091Z,150.15
2023-03-27T23:53:55.143Z,134.44
2023-03-27T23:54:55.191Z,131.50
2023-03-27T23:55:55.239Z,107.72
2023-03-27T23:56:55.291Z,102.19
2023-03-27T23:57:55.340Z,96.57
2023-03-27T23:58:55.407Z,105.05
2023-03-27T23:59:55.475Z,101.65
